sensor_id;sensor_type;location;lat;lon;timestamp;P1;durP1;ratioP1;P2;durP2;ratioP2
10596;SDS011;5346;48.766;8.674;2022-09-24T00:00:38;5.57;;;3.30;;
10596;SDS011;5346;48.766;8.674;2022-09-24T00:03:06;4.22;;;3.10;;
10596;SDS011;5346;48.766;8.674;2022-09-24T00:05:37;3.08;;;2.83;;
10596;SDS011;5346;48.766;8.674;2022-09-24T00:08:13;5.85;;;3.90;;
10596;SDS011;5346;48.766;8.674;2022-09-24T00:10:43;4.57;;;3.20;;
10596;SDS011;5346;48.766;8.674;2022-09-24T00:13:25;6.97;;;3.00;;
10596;SDS011;5346;48.766;8.674;2022-09-24T00:16:08;6.05;;;3.40;;
10596;SDS011;5346;48.766;8.674;2022-09-24T00:18:44;5.20;;;2.97;;
10596;SDS011;5346;48.766;8.674;2022-09-24T00:21:17;5.53;;;3.03;;
10596;SDS011;5346;48.766;8.674;2022-09-24T00:23:55;4.60;;;3.03;;
10596;SDS011;5346;48.766;8.674;2022-09-24T00:26:36;7.72;;;3.80;;
10596;SDS011;5346;48.766;8.674;2022-09-24T00:29:22;3.30;;;3.00;;
10596;SDS011;5346;48.766;8.674;2022-09-24T00:31:51;3.25;;;2.65;;
10596;SDS011;5346;48.766;8.674;2022-09-24T00:34:19;6.43;;;3.17;;
10596;SDS011;5346;48.766;8.674;2022-09-24T00:36:53;8.13;;;3.23;;
10596;SDS011;5346;48.766;8.674;2022-09-24T00:39:21;3.80;;;3.20;;
10596;SDS011;5346;48.766;8.674;2022-09-24T00:41:48;8.17;;;3.00;;
10596;SDS011;5346;48.766;8.674;2022-09-24T00:47:13;4.77;;;3.30;;
10596;SDS011;5346;48.766;8.674;2022-09-24T00:50:13;7.80;;;3.90;;
10596;SDS011;5346;48.766;8.674;2022-09-24T00:52:49;4.20;;;2.90;;
10596;SDS011;5346;48.766;8.674;2022-09-24T00:55:32;5.00;;;3.63;;
10596;SDS011;5346;48.766;8.674;2022-09-24T00:58:03;4.78;;;3.33;;
10596;SDS011;5346;48.766;8.674;2022-09-24T01:00:40;7.03;;;3.40;;
10596;SDS011;5346;48.766;8.674;2022-09-24T01:03:12;6.50;;;3.27;;
10596;SDS011;5346;48.766;8.674;2022-09-24T01:05:48;5.63;;;3.63;;
10596;SDS011;5346;48.766;8.674;2022-09-24T01:08:17;5.10;;;4.00;;
10596;SDS011;5346;48.766;8.674;2022-09-24T01:19:35;10.10;;;4.60;;
10596;SDS011;5346;48.766;8.674;2022-09-24T01:22:48;8.37;;;4.53;;
10596;SDS011;5346;48.766;8.674;2022-09-24T01:28:12;5.80;;;5.20;;
10596;SDS011;5346;48.766;8.674;2022-09-24T01:31:04;12.33;;;5.47;;
10596;SDS011;5346;48.766;8.674;2022-09-24T01:33:43;8.63;;;5.77;;
10596;SDS011;5346;48.766;8.674;2022-09-24T01:36:20;6.53;;;5.13;;
10596;SDS011;5346;48.766;8.674;2022-09-24T01:38:50;9.83;;;6.03;;
10596;SDS011;5346;48.766;8.674;2022-09-24T01:41:27;7.70;;;5.07;;
10596;SDS011;5346;48.766;8.674;2022-09-24T01:43:56;7.83;;;5.60;;
10596;SDS011;5346;48.766;8.674;2022-09-24T01:46:25;7.93;;;5.60;;
10596;SDS011;5346;48.766;8.674;2022-09-24T01:48:59;6.87;;;5.40;;
10596;SDS011;5346;48.766;8.674;2022-09-24T01:51:28;12.03;;;6.93;;
10596;SDS011;5346;48.766;8.674;2022-09-24T01:54:21;7.67;;;5.40;;
10596;SDS011;5346;48.766;8.674;2022-09-24T01:56:50;12.30;;;6.10;;
10596;SDS011;5346;48.766;8.674;2022-09-24T01:59:47;7.00;;;5.00;;
10596;SDS011;5346;48.766;8.674;2022-09-24T02:02:22;8.43;;;5.50;;
10596;SDS011;5346;48.766;8.674;2022-09-24T02:08:11;8.10;;;5.67;;
10596;SDS011;5346;48.766;8.674;2022-09-24T02:11:02;10.57;;;5.97;;
10596;SDS011;5346;48.766;8.674;2022-09-24T02:13:44;7.83;;;6.80;;
10596;SDS011;5346;48.766;8.674;2022-09-24T02:16:25;9.43;;;5.77;;
10596;SDS011;5346;48.766;8.674;2022-09-24T02:19:10;11.53;;;6.77;;
10596;SDS011;5346;48.766;8.674;2022-09-24T02:21:48;5.93;;;5.10;;
10596;SDS011;5346;48.766;8.674;2022-09-24T02:24:18;7.10;;;5.57;;
10596;SDS011;5346;48.766;8.674;2022-09-24T02:26:55;9.20;;;5.72;;
10596;SDS011;5346;48.766;8.674;2022-09-24T02:29:23;15.52;;;6.55;;
10596;SDS011;5346;48.766;8.674;2022-09-24T02:31:51;6.83;;;5.43;;
10596;SDS011;5346;48.766;8.674;2022-09-24T02:34:30;8.10;;;5.70;;
10596;SDS011;5346;48.766;8.674;2022-09-24T02:37:09;10.68;;;6.28;;
10596;SDS011;5346;48.766;8.674;2022-09-24T02:39:47;8.97;;;5.23;;
10596;SDS011;5346;48.766;8.674;2022-09-24T02:42:15;7.07;;;6.20;;
10596;SDS011;5346;48.766;8.674;2022-09-24T02:44:45;8.30;;;6.27;;
10596;SDS011;5346;48.766;8.674;2022-09-24T02:47:21;9.83;;;5.63;;
10596;SDS011;5346;48.766;8.674;2022-09-24T02:49:49;10.15;;;7.85;;
10596;SDS011;5346;48.766;8.674;2022-09-24T02:52:16;13.25;;;6.32;;
10596;SDS011;5346;48.766;8.674;2022-09-24T02:54:53;6.65;;;5.70;;
10596;SDS011;5346;48.766;8.674;2022-09-24T02:57:20;6.33;;;5.63;;
10596;SDS011;5346;48.766;8.674;2022-09-24T02:59:48;7.20;;;5.63;;
10596;SDS011;5346;48.766;8.674;2022-09-24T03:02:23;8.23;;;5.82;;
10596;SDS011;5346;48.766;8.674;2022-09-24T03:04:52;13.68;;;7.22;;
10596;SDS011;5346;48.766;8.674;2022-09-24T03:07:20;5.82;;;5.22;;
10596;SDS011;5346;48.766;8.674;2022-09-24T03:09:54;10.63;;;7.18;;
10596;SDS011;5346;48.766;8.674;2022-09-24T03:12:22;6.88;;;6.18;;
10596;SDS011;5346;48.766;8.674;2022-09-24T03:14:50;8.30;;;6.03;;
10596;SDS011;5346;48.766;8.674;2022-09-24T03:17:27;6.78;;;5.55;;
10596;SDS011;5346;48.766;8.674;2022-09-24T03:19:56;11.05;;;5.30;;
10596;SDS011;5346;48.766;8.674;2022-09-24T03:22:23;7.75;;;5.90;;
10596;SDS011;5346;48.766;8.674;2022-09-24T03:24:57;5.13;;;4.63;;
10596;SDS011;5346;48.766;8.674;2022-09-24T03:27:25;9.85;;;5.70;;
10596;SDS011;5346;48.766;8.674;2022-09-24T03:29:52;10.60;;;5.82;;
10596;SDS011;5346;48.766;8.674;2022-09-24T03:32:46;7.28;;;4.97;;
10596;SDS011;5346;48.766;8.674;2022-09-24T03:35:14;6.25;;;5.05;;
10596;SDS011;5346;48.766;8.674;2022-09-24T03:37:42;9.88;;;5.57;;
10596;SDS011;5346;48.766;8.674;2022-09-24T03:40:16;7.38;;;5.35;;
10596;SDS011;5346;48.766;8.674;2022-09-24T03:42:44;7.65;;;5.90;;
10596;SDS011;5346;48.766;8.674;2022-09-24T03:45:13;9.00;;;5.47;;
10596;SDS011;5346;48.766;8.674;2022-09-24T03:47:48;7.63;;;5.70;;
10596;SDS011;5346;48.766;8.674;2022-09-24T03:50:16;11.38;;;6.50;;
10596;SDS011;5346;48.766;8.674;2022-09-24T03:52:43;10.32;;;6.55;;
10596;SDS011;5346;48.766;8.674;2022-09-24T03:55:17;11.18;;;7.28;;
10596;SDS011;5346;48.766;8.674;2022-09-24T03:57:45;9.38;;;6.60;;
10596;SDS011;5346;48.766;8.674;2022-09-24T04:00:12;10.25;;;6.30;;
10596;SDS011;5346;48.766;8.674;2022-09-24T04:02:46;7.25;;;5.22;;
10596;SDS011;5346;48.766;8.674;2022-09-24T04:05:14;12.07;;;5.50;;
10596;SDS011;5346;48.766;8.674;2022-09-24T04:07:43;8.85;;;5.97;;
10596;SDS011;5346;48.766;8.674;2022-09-24T04:10:18;13.63;;;5.40;;
10596;SDS011;5346;48.766;8.674;2022-09-24T04:12:45;6.88;;;5.68;;
10596;SDS011;5346;48.766;8.674;2022-09-24T04:15:13;8.10;;;4.80;;
10596;SDS011;5346;48.766;8.674;2022-09-24T04:17:50;6.65;;;5.32;;
10596;SDS011;5346;48.766;8.674;2022-09-24T04:20:19;8.00;;;5.13;;
10596;SDS011;5346;48.766;8.674;2022-09-24T04:22:56;6.82;;;4.60;;
10596;SDS011;5346;48.766;8.674;2022-09-24T04:25:25;8.93;;;4.68;;
10596;SDS011;5346;48.766;8.674;2022-09-24T04:27:58;6.40;;;4.85;;
10596;SDS011;5346;48.766;8.674;2022-09-24T04:30:34;8.40;;;4.35;;
10596;SDS011;5346;48.766;8.674;2022-09-24T04:33:06;5.63;;;4.88;;
10596;SDS011;5346;48.766;8.674;2022-09-24T04:35:34;4.97;;;4.05;;
10596;SDS011;5346;48.766;8.674;2022-09-24T04:38:08;5.70;;;4.60;;
10596;SDS011;5346;48.766;8.674;2022-09-24T04:40:36;6.40;;;4.38;;
10596;SDS011;5346;48.766;8.674;2022-09-24T04:43:05;6.35;;;4.43;;
10596;SDS011;5346;48.766;8.674;2022-09-24T04:45:39;6.57;;;4.80;;
10596;SDS011;5346;48.766;8.674;2022-09-24T04:48:09;6.15;;;4.15;;
10596;SDS011;5346;48.766;8.674;2022-09-24T04:50:36;8.80;;;4.50;;
10596;SDS011;5346;48.766;8.674;2022-09-24T04:53:12;5.20;;;4.28;;
10596;SDS011;5346;48.766;8.674;2022-09-24T04:55:39;4.97;;;4.00;;
10596;SDS011;5346;48.766;8.674;2022-09-24T04:58:07;6.80;;;3.97;;
10596;SDS011;5346;48.766;8.674;2022-09-24T05:00:41;4.05;;;3.65;;
10596;SDS011;5346;48.766;8.674;2022-09-24T05:03:08;6.10;;;3.92;;
10596;SDS011;5346;48.766;8.674;2022-09-24T05:05:36;11.23;;;4.25;;
10596;SDS011;5346;48.766;8.674;2022-09-24T05:08:10;4.50;;;3.70;;
10596;SDS011;5346;48.766;8.674;2022-09-24T05:10:38;4.28;;;3.40;;
10596;SDS011;5346;48.766;8.674;2022-09-24T05:13:07;5.32;;;3.78;;
10596;SDS011;5346;48.766;8.674;2022-09-24T05:15:48;5.25;;;3.58;;
10596;SDS011;5346;48.766;8.674;2022-09-24T05:18:15;5.18;;;3.30;;
10596;SDS011;5346;48.766;8.674;2022-09-24T05:20:49;8.10;;;2.90;;
10596;SDS011;5346;48.766;8.674;2022-09-24T05:23:16;3.92;;;3.53;;
10596;SDS011;5346;48.766;8.674;2022-09-24T05:25:44;4.55;;;3.40;;
10596;SDS011;5346;48.766;8.674;2022-09-24T05:28:36;3.72;;;3.22;;
10596;SDS011;5346;48.766;8.674;2022-09-24T05:31:08;4.43;;;3.22;;
10596;SDS011;5346;48.766;8.674;2022-09-24T05:33:38;6.13;;;3.50;;
10596;SDS011;5346;48.766;8.674;2022-09-24T05:36:12;5.35;;;3.00;;
10596;SDS011;5346;48.766;8.674;2022-09-24T05:38:41;4.25;;;2.95;;
10596;SDS011;5346;48.766;8.674;2022-09-24T05:41:08;6.00;;;3.78;;
10596;SDS011;5346;48.766;8.674;2022-09-24T05:43:45;6.07;;;3.15;;
10596;SDS011;5346;48.766;8.674;2022-09-24T05:46:14;4.90;;;2.83;;
10596;SDS011;5346;48.766;8.674;2022-09-24T05:48:41;5.53;;;3.28;;
10596;SDS011;5346;48.766;8.674;2022-09-24T05:51:15;4.43;;;3.70;;
10596;SDS011;5346;48.766;8.674;2022-09-24T05:53:43;7.13;;;3.22;;
10596;SDS011;5346;48.766;8.674;2022-09-24T05:56:13;3.42;;;3.13;;
10596;SDS011;5346;48.766;8.674;2022-09-24T05:58:50;4.60;;;2.85;;
10596;SDS011;5346;48.766;8.674;2022-09-24T06:01:20;5.47;;;3.05;;
10596;SDS011;5346;48.766;8.674;2022-09-24T06:03:47;5.45;;;3.53;;
10596;SDS011;5346;48.766;8.674;2022-09-24T06:06:24;6.80;;;3.00;;
10596;SDS011;5346;48.766;8.674;2022-09-24T06:08:52;3.20;;;2.90;;
10596;SDS011;5346;48.766;8.674;2022-09-24T06:11:21;4.68;;;3.00;;
10596;SDS011;5346;48.766;8.674;2022-09-24T06:13:54;8.70;;;3.17;;
10596;SDS011;5346;48.766;8.674;2022-09-24T06:16:37;6.97;;;3.95;;
10596;SDS011;5346;48.766;8.674;2022-09-24T06:19:11;5.65;;;3.70;;
10596;SDS011;5346;48.766;8.674;2022-09-24T06:21:40;3.70;;;3.40;;
10596;SDS011;5346;48.766;8.674;2022-09-24T06:24:09;6.47;;;3.70;;
10596;SDS011;5346;48.766;8.674;2022-09-24T06:26:43;7.60;;;3.72;;
10596;SDS011;5346;48.766;8.674;2022-09-24T06:29:11;8.32;;;3.67;;
10596;SDS011;5346;48.766;8.674;2022-09-24T06:31:39;5.40;;;3.47;;
10596;SDS011;5346;48.766;8.674;2022-09-24T06:34:13;5.10;;;3.30;;
10596;SDS011;5346;48.766;8.674;2022-09-24T06:36:41;4.90;;;3.50;;
10596;SDS011;5346;48.766;8.674;2022-09-24T06:39:08;6.88;;;3.83;;
10596;SDS011;5346;48.766;8.674;2022-09-24T06:41:41;8.73;;;4.25;;
10596;SDS011;5346;48.766;8.674;2022-09-24T06:44:09;7.43;;;4.32;;
10596;SDS011;5346;48.766;8.674;2022-09-24T06:46:36;4.55;;;3.97;;
10596;SDS011;5346;48.766;8.674;2022-09-24T06:49:11;7.05;;;3.95;;
10596;SDS011;5346;48.766;8.674;2022-09-24T06:51:38;5.40;;;3.78;;
10596;SDS011;5346;48.766;8.674;2022-09-24T06:54:06;8.52;;;3.90;;
10596;SDS011;5346;48.766;8.674;2022-09-24T06:56:39;6.85;;;4.50;;
10596;SDS011;5346;48.766;8.674;2022-09-24T06:59:07;4.50;;;3.80;;
10596;SDS011;5346;48.766;8.674;2022-09-24T07:01:35;8.65;;;3.33;;
10596;SDS011;5346;48.766;8.674;2022-09-24T07:04:09;6.13;;;3.65;;
10596;SDS011;5346;48.766;8.674;2022-09-24T07:06:38;11.68;;;4.57;;
10596;SDS011;5346;48.766;8.674;2022-09-24T07:09:30;8.73;;;4.28;;
10596;SDS011;5346;48.766;8.674;2022-09-24T07:11:58;6.22;;;3.67;;
10596;SDS011;5346;48.766;8.674;2022-09-24T07:14:30;5.03;;;3.92;;
10596;SDS011;5346;48.766;8.674;2022-09-24T07:17:03;4.30;;;3.83;;
10596;SDS011;5346;48.766;8.674;2022-09-24T07:19:38;5.47;;;3.97;;
10596;SDS011;5346;48.766;8.674;2022-09-24T07:22:12;7.97;;;4.05;;
10596;SDS011;5346;48.766;8.674;2022-09-24T07:24:39;6.32;;;3.80;;
10596;SDS011;5346;48.766;8.674;2022-09-24T07:27:07;5.30;;;3.97;;
10596;SDS011;5346;48.766;8.674;2022-09-24T07:29:41;6.50;;;4.03;;
10596;SDS011;5346;48.766;8.674;2022-09-24T07:32:09;7.10;;;3.38;;
10596;SDS011;5346;48.766;8.674;2022-09-24T07:34:37;8.27;;;3.50;;
10596;SDS011;5346;48.766;8.674;2022-09-24T07:37:11;7.45;;;3.40;;
10596;SDS011;5346;48.766;8.674;2022-09-24T07:39:39;6.10;;;3.38;;
10596;SDS011;5346;48.766;8.674;2022-09-24T07:42:07;10.20;;;3.67;;
10596;SDS011;5346;48.766;8.674;2022-09-24T07:44:42;5.70;;;2.90;;
10596;SDS011;5346;48.766;8.674;2022-09-24T07:47:09;5.75;;;3.20;;
10596;SDS011;5346;48.766;8.674;2022-09-24T07:49:40;7.35;;;3.42;;
10596;SDS011;5346;48.766;8.674;2022-09-24T07:52:14;4.55;;;2.63;;
10596;SDS011;5346;48.766;8.674;2022-09-24T07:54:42;4.90;;;2.70;;
10596;SDS011;5346;48.766;8.674;2022-09-24T07:57:10;3.97;;;2.72;;
10596;SDS011;5346;48.766;8.674;2022-09-24T07:59:47;3.25;;;2.53;;
10596;SDS011;5346;48.766;8.674;2022-09-24T08:02:16;3.00;;;2.45;;
10596;SDS011;5346;48.766;8.674;2022-09-24T08:04:44;2.50;;;2.20;;
10596;SDS011;5346;48.766;8.674;2022-09-24T08:07:18;3.97;;;2.75;;
10596;SDS011;5346;48.766;8.674;2022-09-24T08:09:48;3.50;;;2.38;;
10596;SDS011;5346;48.766;8.674;2022-09-24T08:12:15;5.57;;;2.28;;
10596;SDS011;5346;48.766;8.674;2022-09-24T08:14:56;2.63;;;2.20;;
10596;SDS011;5346;48.766;8.674;2022-09-24T08:17:38;2.30;;;2.10;;
10596;SDS011;5346;48.766;8.674;2022-09-24T08:20:15;2.20;;;2.00;;
10596;SDS011;5346;48.766;8.674;2022-09-24T08:22:43;2.50;;;2.30;;
10596;SDS011;5346;48.766;8.674;2022-09-24T08:25:11;4.40;;;2.83;;
10596;SDS011;5346;48.766;8.674;2022-09-24T08:27:44;2.85;;;2.20;;
10596;SDS011;5346;48.766;8.674;2022-09-24T08:30:12;2.20;;;2.00;;
10596;SDS011;5346;48.766;8.674;2022-09-24T08:32:44;2.85;;;2.00;;
10596;SDS011;5346;48.766;8.674;2022-09-24T08:35:20;3.00;;;2.15;;
10596;SDS011;5346;48.766;8.674;2022-09-24T08:37:47;2.92;;;2.30;;
10596;SDS011;5346;48.766;8.674;2022-09-24T08:40:22;2.38;;;2.05;;
10596;SDS011;5346;48.766;8.674;2022-09-24T08:43:01;2.55;;;2.33;;
10596;SDS011;5346;48.766;8.674;2022-09-24T08:49:26;4.85;;;2.50;;
10596;SDS011;5346;48.766;8.674;2022-09-24T08:55:03;2.38;;;2.17;;
10596;SDS011;5346;48.766;8.674;2022-09-24T09:11:58;2.67;;;1.67;;
10596;SDS011;5346;48.766;8.674;2022-09-24T09:17:23;2.22;;;1.88;;
10596;SDS011;5346;48.766;8.674;2022-09-24T09:20:18;2.88;;;1.98;;
10596;SDS011;5346;48.766;8.674;2022-09-24T09:22:56;2.58;;;1.70;;
10596;SDS011;5346;48.766;8.674;2022-09-24T09:25:29;2.40;;;2.20;;
10596;SDS011;5346;48.766;8.674;2022-09-24T09:28:12;2.38;;;1.60;;
10596;SDS011;5346;48.766;8.674;2022-09-24T09:42:29;1.83;;;1.55;;
10596;SDS011;5346;48.766;8.674;2022-09-24T09:45:15;2.05;;;1.83;;
10596;SDS011;5346;48.766;8.674;2022-09-24T09:47:53;1.63;;;1.45;;
10596;SDS011;5346;48.766;8.674;2022-09-24T09:50:31;2.15;;;1.70;;
10596;SDS011;5346;48.766;8.674;2022-09-24T09:53:05;1.65;;;1.40;;
10596;SDS011;5346;48.766;8.674;2022-09-24T09:55:51;2.88;;;1.88;;
10596;SDS011;5346;48.766;8.674;2022-09-24T10:01:12;1.88;;;1.65;;
10596;SDS011;5346;48.766;8.674;2022-09-24T10:06:22;2.10;;;1.60;;
10596;SDS011;5346;48.766;8.674;2022-09-24T10:09:04;1.80;;;1.70;;
10596;SDS011;5346;48.766;8.674;2022-09-24T10:11:53;1.60;;;1.50;;
10596;SDS011;5346;48.766;8.674;2022-09-24T10:14:37;2.50;;;1.60;;
10596;SDS011;5346;48.766;8.674;2022-09-24T10:17:12;1.70;;;1.60;;
10596;SDS011;5346;48.766;8.674;2022-09-24T10:19:50;1.75;;;1.60;;
10596;SDS011;5346;48.766;8.674;2022-09-24T10:22:25;2.10;;;1.90;;
10596;SDS011;5346;48.766;8.674;2022-09-24T10:24:55;1.67;;;1.35;;
10596;SDS011;5346;48.766;8.674;2022-09-24T10:27:33;3.55;;;1.83;;
10596;SDS011;5346;48.766;8.674;2022-09-24T10:30:11;3.40;;;1.70;;
10596;SDS011;5346;48.766;8.674;2022-09-24T10:33:05;1.63;;;1.52;;
10596;SDS011;5346;48.766;8.674;2022-09-24T10:35:35;1.85;;;1.38;;
10596;SDS011;5346;48.766;8.674;2022-09-24T10:38:14;3.38;;;1.52;;
10596;SDS011;5346;48.766;8.674;2022-09-24T10:40:49;3.15;;;1.55;;
10596;SDS011;5346;48.766;8.674;2022-09-24T10:43:17;5.60;;;1.60;;
10596;SDS011;5346;48.766;8.674;2022-09-24T10:45:57;1.90;;;1.67;;
10596;SDS011;5346;48.766;8.674;2022-09-24T10:51:18;2.13;;;1.83;;
10596;SDS011;5346;48.766;8.674;2022-09-24T10:56:48;1.60;;;1.50;;
10596;SDS011;5346;48.766;8.674;2022-09-24T11:05:03;1.80;;;1.70;;
10596;SDS011;5346;48.766;8.674;2022-09-24T11:13:39;2.72;;;2.10;;
10596;SDS011;5346;48.766;8.674;2022-09-24T11:19:16;1.77;;;1.63;;
10596;SDS011;5346;48.766;8.674;2022-09-24T11:22:14;2.40;;;2.20;;
10596;SDS011;5346;48.766;8.674;2022-09-24T11:25:07;2.67;;;2.00;;
10596;SDS011;5346;48.766;8.674;2022-09-24T11:27:50;4.22;;;2.15;;
10596;SDS011;5346;48.766;8.674;2022-09-24T11:30:38;2.72;;;2.30;;
10596;SDS011;5346;48.766;8.674;2022-09-24T11:40:03;2.40;;;2.20;;
10596;SDS011;5346;48.766;8.674;2022-09-24T11:42:42;5.60;;;3.08;;
10596;SDS011;5346;48.766;8.674;2022-09-24T11:45:28;3.00;;;2.75;;
10596;SDS011;5346;48.766;8.674;2022-09-24T11:54:11;2.88;;;2.65;;
10596;SDS011;5346;48.766;8.674;2022-09-24T11:57:09;3.15;;;2.85;;
10596;SDS011;5346;48.766;8.674;2022-09-24T12:02:41;3.20;;;2.63;;
10596;SDS011;5346;48.766;8.674;2022-09-24T12:05:45;3.25;;;2.88;;
10596;SDS011;5346;48.766;8.674;2022-09-24T12:08:36;3.88;;;3.25;;
10596;SDS011;5346;48.766;8.674;2022-09-24T12:11:33;3.55;;;3.25;;
10596;SDS011;5346;48.766;8.674;2022-09-24T12:14:12;4.40;;;3.00;;
10596;SDS011;5346;48.766;8.674;2022-09-24T12:17:32;4.28;;;3.45;;
10596;SDS011;5346;48.766;8.674;2022-09-24T12:20:16;3.50;;;3.20;;
10596;SDS011;5346;48.766;8.674;2022-09-24T12:22:49;4.00;;;3.22;;
10596;SDS011;5346;48.766;8.674;2022-09-24T12:25:33;4.07;;;3.10;;
10596;SDS011;5346;48.766;8.674;2022-09-24T12:28:11;3.40;;;3.10;;
10596;SDS011;5346;48.766;8.674;2022-09-24T12:31:17;3.83;;;3.40;;
10596;SDS011;5346;48.766;8.674;2022-09-24T12:34:16;3.92;;;3.53;;
10596;SDS011;5346;48.766;8.674;2022-09-24T12:37:03;3.78;;;3.05;;
10596;SDS011;5346;48.766;8.674;2022-09-24T12:39:37;5.72;;;3.60;;
10596;SDS011;5346;48.766;8.674;2022-09-24T12:42:41;2.97;;;2.65;;
10596;SDS011;5346;48.766;8.674;2022-09-24T12:45:14;3.38;;;3.00;;
10596;SDS011;5346;48.766;8.674;2022-09-24T12:47:55;5.50;;;2.90;;
10596;SDS011;5346;48.766;8.674;2022-09-24T12:50:29;3.10;;;2.90;;
10596;SDS011;5346;48.766;8.674;2022-09-24T12:53:19;4.78;;;3.00;;
10596;SDS011;5346;48.766;8.674;2022-09-24T12:55:50;4.68;;;2.90;;
10596;SDS011;5346;48.766;8.674;2022-09-24T12:58:38;2.90;;;2.63;;
10596;SDS011;5346;48.766;8.674;2022-09-24T13:03:45;8.68;;;3.50;;
10596;SDS011;5346;48.766;8.674;2022-09-24T13:06:31;3.53;;;3.22;;
10596;SDS011;5346;48.766;8.674;2022-09-24T13:09:28;3.42;;;3.00;;
10596;SDS011;5346;48.766;8.674;2022-09-24T13:14:37;10.43;;;7.50;;
10596;SDS011;5346;48.766;8.674;2022-09-24T13:17:21;5.72;;;3.47;;
10596;SDS011;5346;48.766;8.674;2022-09-24T13:20:06;5.80;;;3.40;;
10596;SDS011;5346;48.766;8.674;2022-09-24T13:22:57;4.25;;;3.13;;
10596;SDS011;5346;48.766;8.674;2022-09-24T13:28:24;6.22;;;3.08;;
10596;SDS011;5346;48.766;8.674;2022-09-24T13:33:56;3.50;;;3.03;;
10596;SDS011;5346;48.766;8.674;2022-09-24T13:36:44;7.03;;;2.88;;
10596;SDS011;5346;48.766;8.674;2022-09-24T13:42:34;6.30;;;3.20;;
10596;SDS011;5346;48.766;8.674;2022-09-24T13:45:14;4.05;;;3.10;;
10596;SDS011;5346;48.766;8.674;2022-09-24T13:47:53;5.38;;;3.70;;
10596;SDS011;5346;48.766;8.674;2022-09-24T13:50:35;5.85;;;2.97;;
10596;SDS011;5346;48.766;8.674;2022-09-24T13:53:14;6.55;;;3.42;;
10596;SDS011;5346;48.766;8.674;2022-09-24T13:55:46;7.03;;;3.80;;
10596;SDS011;5346;48.766;8.674;2022-09-24T13:58:26;4.95;;;2.78;;
10596;SDS011;5346;48.766;8.674;2022-09-24T14:00:55;6.50;;;3.05;;
10596;SDS011;5346;48.766;8.674;2022-09-24T14:03:27;4.80;;;3.00;;
10596;SDS011;5346;48.766;8.674;2022-09-24T14:06:12;4.15;;;2.85;;
10596;SDS011;5346;48.766;8.674;2022-09-24T14:08:44;3.47;;;3.10;;
10596;SDS011;5346;48.766;8.674;2022-09-24T14:11:20;3.47;;;3.17;;
10596;SDS011;5346;48.766;8.674;2022-09-24T14:13:52;3.08;;;2.78;;
10596;SDS011;5346;48.766;8.674;2022-09-24T14:16:28;3.22;;;2.92;;
10596;SDS011;5346;48.766;8.674;2022-09-24T14:19:04;3.22;;;2.90;;
10596;SDS011;5346;48.766;8.674;2022-09-24T14:21:40;4.82;;;2.50;;
10596;SDS011;5346;48.766;8.674;2022-09-24T14:24:22;7.15;;;3.03;;
10596;SDS011;5346;48.766;8.674;2022-09-24T14:30:06;6.25;;;3.60;;
10596;SDS011;5346;48.766;8.674;2022-09-24T14:32:57;5.20;;;4.10;;
10596;SDS011;5346;48.766;8.674;2022-09-24T14:35:32;4.75;;;3.55;;
10596;SDS011;5346;48.766;8.674;2022-09-24T14:38:11;6.57;;;3.80;;
10596;SDS011;5346;48.766;8.674;2022-09-24T14:40:49;6.07;;;3.33;;
10596;SDS011;5346;48.766;8.674;2022-09-24T14:43:43;4.90;;;3.50;;
10596;SDS011;5346;48.766;8.674;2022-09-24T14:49:55;6.68;;;4.40;;
10596;SDS011;5346;48.766;8.674;2022-09-24T14:57:41;5.60;;;4.90;;
10596;SDS011;5346;48.766;8.674;2022-09-24T15:00:24;33.45;;;15.10;;
10596;SDS011;5346;48.766;8.674;2022-09-24T15:03:02;25.60;;;13.38;;
10596;SDS011;5346;48.766;8.674;2022-09-24T15:05:49;14.63;;;11.13;;
10596;SDS011;5346;48.766;8.674;2022-09-24T15:10:52;4.97;;;4.47;;
10596;SDS011;5346;48.766;8.674;2022-09-24T15:13:32;6.45;;;3.97;;
10596;SDS011;5346;48.766;8.674;2022-09-24T15:21:47;5.63;;;4.85;;
10596;SDS011;5346;48.766;8.674;2022-09-24T15:24:23;5.63;;;4.85;;
10596;SDS011;5346;48.766;8.674;2022-09-24T15:27:04;5.03;;;4.03;;
10596;SDS011;5346;48.766;8.674;2022-09-24T15:29:47;5.13;;;4.63;;
10596;SDS011;5346;48.766;8.674;2022-09-24T15:32:17;5.68;;;4.22;;
10596;SDS011;5346;48.766;8.674;2022-09-24T15:34:45;6.20;;;5.10;;
10596;SDS011;5346;48.766;8.674;2022-09-24T15:37:21;7.28;;;4.93;;
10596;SDS011;5346;48.766;8.674;2022-09-24T15:39:51;5.68;;;4.90;;
10596;SDS011;5346;48.766;8.674;2022-09-24T15:42:28;8.43;;;4.75;;
10596;SDS011;5346;48.766;8.674;2022-09-24T15:44:56;5.40;;;4.53;;
10596;SDS011;5346;48.766;8.674;2022-09-24T15:47:24;6.30;;;5.10;;
10596;SDS011;5346;48.766;8.674;2022-09-24T15:49:58;6.10;;;4.53;;
10596;SDS011;5346;48.766;8.674;2022-09-24T15:52:26;7.22;;;5.55;;
10596;SDS011;5346;48.766;8.674;2022-09-24T15:54:57;8.85;;;5.55;;
10596;SDS011;5346;48.766;8.674;2022-09-24T15:57:34;5.35;;;4.85;;
10596;SDS011;5346;48.766;8.674;2022-09-24T16:00:02;6.50;;;5.28;;
10596;SDS011;5346;48.766;8.674;2022-09-24T16:02:31;6.22;;;5.63;;
10596;SDS011;5346;48.766;8.674;2022-09-24T16:05:10;6.38;;;5.75;;
10596;SDS011;5346;48.766;8.674;2022-09-24T16:07:38;6.07;;;5.43;;
10596;SDS011;5346;48.766;8.674;2022-09-24T16:10:15;8.80;;;7.90;;
10596;SDS011;5346;48.766;8.674;2022-09-24T16:12:43;7.45;;;6.75;;
10596;SDS011;5346;48.766;8.674;2022-09-24T16:15:11;6.85;;;6.15;;
10596;SDS011;5346;48.766;8.674;2022-09-24T16:17:47;9.10;;;5.70;;
10596;SDS011;5346;48.766;8.674;2022-09-24T16:20:15;6.82;;;5.60;;
10596;SDS011;5346;48.766;8.674;2022-09-24T16:22:43;7.10;;;6.15;;
10596;SDS011;5346;48.766;8.674;2022-09-24T16:25:17;9.77;;;7.03;;
10596;SDS011;5346;48.766;8.674;2022-09-24T16:27:44;6.10;;;5.50;;
10596;SDS011;5346;48.766;8.674;2022-09-24T16:30:12;6.88;;;6.07;;
10596;SDS011;5346;48.766;8.674;2022-09-24T16:32:47;9.45;;;6.50;;
10596;SDS011;5346;48.766;8.674;2022-09-24T16:35:15;7.25;;;6.30;;
10596;SDS011;5346;48.766;8.674;2022-09-24T16:37:42;6.57;;;5.88;;
10596;SDS011;5346;48.766;8.674;2022-09-24T16:40:17;6.35;;;5.75;;
10596;SDS011;5346;48.766;8.674;2022-09-24T16:42:45;7.03;;;5.28;;
10596;SDS011;5346;48.766;8.674;2022-09-24T16:45:12;5.93;;;5.32;;
10596;SDS011;5346;48.766;8.674;2022-09-24T16:47:47;7.60;;;5.95;;
10596;SDS011;5346;48.766;8.674;2022-09-24T16:50:14;6.75;;;5.70;;
10596;SDS011;5346;48.766;8.674;2022-09-24T16:52:42;6.93;;;6.22;;
10596;SDS011;5346;48.766;8.674;2022-09-24T16:55:18;9.18;;;7.05;;
10596;SDS011;5346;48.766;8.674;2022-09-24T16:57:52;6.88;;;6.13;;
10596;SDS011;5346;48.766;8.674;2022-09-24T17:00:26;8.65;;;6.07;;
10596;SDS011;5346;48.766;8.674;2022-09-24T17:02:53;6.65;;;5.20;;
10596;SDS011;5346;48.766;8.674;2022-09-24T17:05:21;6.68;;;5.97;;
10596;SDS011;5346;48.766;8.674;2022-09-24T17:07:55;6.53;;;5.93;;
10596;SDS011;5346;48.766;8.674;2022-09-24T17:10:22;6.78;;;5.80;;
10596;SDS011;5346;48.766;8.674;2022-09-24T17:12:50;6.90;;;5.90;;
10596;SDS011;5346;48.766;8.674;2022-09-24T17:15:24;6.60;;;5.93;;
10596;SDS011;5346;48.766;8.674;2022-09-24T17:18:06;7.55;;;6.22;;
10596;SDS011;5346;48.766;8.674;2022-09-24T17:20:40;8.40;;;5.90;;
10596;SDS011;5346;48.766;8.674;2022-09-24T17:23:10;7.07;;;5.30;;
10596;SDS011;5346;48.766;8.674;2022-09-24T17:26:15;4.75;;;4.20;;
10596;SDS011;5346;48.766;8.674;2022-09-24T17:28:47;5.10;;;3.40;;
10596;SDS011;5346;48.766;8.674;2022-09-24T17:31:23;3.10;;;2.80;;
10596;SDS011;5346;48.766;8.674;2022-09-24T17:33:55;3.60;;;3.22;;
10596;SDS011;5346;48.766;8.674;2022-09-24T17:36:32;3.40;;;2.72;;
10596;SDS011;5346;48.766;8.674;2022-09-24T17:39:03;3.40;;;2.70;;
10596;SDS011;5346;48.766;8.674;2022-09-24T17:41:42;3.85;;;2.90;;
10596;SDS011;5346;48.766;8.674;2022-09-24T17:44:10;6.07;;;3.88;;
10596;SDS011;5346;48.766;8.674;2022-09-24T17:46:38;5.97;;;3.65;;
10596;SDS011;5346;48.766;8.674;2022-09-24T17:49:17;4.68;;;3.60;;
10596;SDS011;5346;48.766;8.674;2022-09-24T17:51:49;6.07;;;3.28;;
10596;SDS011;5346;48.766;8.674;2022-09-24T17:54:23;4.18;;;3.78;;
10596;SDS011;5346;48.766;8.674;2022-09-24T17:56:57;5.63;;;3.65;;